sensor_id;sensor_type;location;lat;lon;timestamp;P1;durP1;ratioP1;P2;durP2;ratioP2
76745;SDS011;65671;49.976;20.038;2023-04-15T00:00:37;8.25;;;3.63;;
76745;SDS011;65671;49.976;20.038;2023-04-15T00:03:03;2.80;;;1.50;;
76745;SDS011;65671;49.976;20.038;2023-04-15T00:05:32;3.20;;;1.77;;
76745;SDS011;65671;49.976;20.038;2023-04-15T00:07:58;2.97;;;1.55;;
76745;SDS011;65671;49.976;20.038;2023-04-15T00:10:25;2.22;;;1.45;;
76745;SDS011;65671;49.976;20.038;2023-04-15T00:12:51;3.03;;;1.67;;
76745;SDS011;65671;49.976;20.038;2023-04-15T00:15:17;2.45;;;1.35;;
76745;SDS011;65671;49.976;20.038;2023-04-15T00:17:42;2.47;;;1.30;;
76745;SDS011;65671;49.976;20.038;2023-04-15T00:20:08;2.50;;;1.20;;
76745;SDS011;65671;49.976;20.038;2023-04-15T00:22:34;2.08;;;1.20;;
76745;SDS011;65671;49.976;20.038;2023-04-15T00:25:00;1.80;;;1.30;;
76745;SDS011;65671;49.976;20.038;2023-04-15T00:27:26;2.38;;;1.35;;
76745;SDS011;65671;49.976;20.038;2023-04-15T00:29:52;2.03;;;1.30;;
76745;SDS011;65671;49.976;20.038;2023-04-15T00:32:17;1.60;;;1.08;;
76745;SDS011;65671;49.976;20.038;2023-04-15T00:34:43;4.38;;;1.40;;
76745;SDS011;65671;49.976;20.038;2023-04-15T00:37:08;2.33;;;1.70;;
76745;SDS011;65671;49.976;20.038;2023-04-15T00:39:34;2.10;;;1.40;;
76745;SDS011;65671;49.976;20.038;2023-04-15T00:42:01;2.47;;;1.33;;
76745;SDS011;65671;49.976;20.038;2023-04-15T00:44:28;1.25;;;1.10;;
76745;SDS011;65671;49.976;20.038;2023-04-15T00:46:54;2.10;;;1.30;;
76745;SDS011;65671;49.976;20.038;2023-04-15T00:49:20;2.22;;;1.50;;
76745;SDS011;65671;49.976;20.038;2023-04-15T00:51:47;2.78;;;1.45;;
76745;SDS011;65671;49.976;20.038;2023-04-15T00:54:12;2.40;;;1.25;;
76745;SDS011;65671;49.976;20.038;2023-04-15T00:56:38;2.05;;;1.50;;
76745;SDS011;65671;49.976;20.038;2023-04-15T00:59:04;2.00;;;1.23;;
76745;SDS011;65671;49.976;20.038;2023-04-15T01:01:33;3.05;;;1.40;;
76745;SDS011;65671;49.976;20.038;2023-04-15T01:04:00;2.88;;;1.48;;
76745;SDS011;65671;49.976;20.038;2023-04-15T01:06:27;2.03;;;1.67;;
76745;SDS011;65671;49.976;20.038;2023-04-15T01:08:53;2.47;;;1.40;;
76745;SDS011;65671;49.976;20.038;2023-04-15T01:11:19;3.55;;;1.48;;
76745;SDS011;65671;49.976;20.038;2023-04-15T01:13:47;2.30;;;1.50;;
76745;SDS011;65671;49.976;20.038;2023-04-15T01:16:12;1.88;;;1.40;;
76745;SDS011;65671;49.976;20.038;2023-04-15T01:18:38;2.50;;;1.60;;
76745;SDS011;65671;49.976;20.038;2023-04-15T01:21:04;2.20;;;1.27;;
76745;SDS011;65671;49.976;20.038;2023-04-15T01:23:31;2.30;;;1.52;;
76745;SDS011;65671;49.976;20.038;2023-04-15T01:26:01;2.22;;;1.40;;
76745;SDS011;65671;49.976;20.038;2023-04-15T01:28:27;2.30;;;1.45;;
76745;SDS011;65671;49.976;20.038;2023-04-15T01:31:09;1.75;;;1.20;;
76745;SDS011;65671;49.976;20.038;2023-04-15T01:33:39;4.40;;;2.30;;
76745;SDS011;65671;49.976;20.038;2023-04-15T01:36:07;2.30;;;1.50;;
76745;SDS011;65671;49.976;20.038;2023-04-15T01:38:34;2.70;;;1.50;;
76745;SDS011;65671;49.976;20.038;2023-04-15T01:41:01;4.25;;;1.95;;
76745;SDS011;65671;49.976;20.038;2023-04-15T01:43:28;2.08;;;1.33;;
76745;SDS011;65671;49.976;20.038;2023-04-15T01:45:54;4.20;;;1.58;;
76745;SDS011;65671;49.976;20.038;2023-04-15T01:48:21;1.85;;;1.25;;
76745;SDS011;65671;49.976;20.038;2023-04-15T01:50:47;1.80;;;1.30;;
76745;SDS011;65671;49.976;20.038;2023-04-15T01:53:12;1.45;;;1.13;;
76745;SDS011;65671;49.976;20.038;2023-04-15T01:55:38;1.75;;;1.35;;
76745;SDS011;65671;49.976;20.038;2023-04-15T01:58:03;2.67;;;1.20;;
76745;SDS011;65671;49.976;20.038;2023-04-15T02:00:29;2.10;;;1.25;;
76745;SDS011;65671;49.976;20.038;2023-04-15T02:02:56;1.73;;;1.30;;
76745;SDS011;65671;49.976;20.038;2023-04-15T02:05:23;1.65;;;1.27;;
76745;SDS011;65671;49.976;20.038;2023-04-15T02:07:49;2.55;;;1.52;;
76745;SDS011;65671;49.976;20.038;2023-04-15T02:10:16;1.80;;;1.20;;
76745;SDS011;65671;49.976;20.038;2023-04-15T02:12:42;2.03;;;1.40;;
76745;SDS011;65671;49.976;20.038;2023-04-15T02:15:08;1.50;;;1.10;;
76745;SDS011;65671;49.976;20.038;2023-04-15T02:17:34;2.03;;;1.30;;
76745;SDS011;65671;49.976;20.038;2023-04-15T02:20:01;1.80;;;1.40;;
76745;SDS011;65671;49.976;20.038;2023-04-15T02:22:30;2.47;;;1.58;;
76745;SDS011;65671;49.976;20.038;2023-04-15T02:24:55;1.85;;;1.30;;
76745;SDS011;65671;49.976;20.038;2023-04-15T02:27:21;1.83;;;1.30;;
76745;SDS011;65671;49.976;20.038;2023-04-15T02:29:46;2.40;;;1.38;;
76745;SDS011;65671;49.976;20.038;2023-04-15T02:32:12;3.22;;;1.50;;
76745;SDS011;65671;49.976;20.038;2023-04-15T02:34:38;1.70;;;1.30;;
76745;SDS011;65671;49.976;20.038;2023-04-15T02:37:07;1.95;;;1.42;;
76745;SDS011;65671;49.976;20.038;2023-04-15T02:39:33;1.60;;;1.33;;
76745;SDS011;65671;49.976;20.038;2023-04-15T02:42:00;2.13;;;1.40;;
76745;SDS011;65671;49.976;20.038;2023-04-15T02:44:26;2.33;;;1.52;;
76745;SDS011;65671;49.976;20.038;2023-04-15T02:46:51;3.65;;;1.50;;
76745;SDS011;65671;49.976;20.038;2023-04-15T02:49:21;1.90;;;1.50;;
76745;SDS011;65671;49.976;20.038;2023-04-15T02:51:47;2.30;;;1.48;;
76745;SDS011;65671;49.976;20.038;2023-04-15T02:54:15;1.73;;;1.50;;
76745;SDS011;65671;49.976;20.038;2023-04-15T02:56:41;2.55;;;1.50;;
76745;SDS011;65671;49.976;20.038;2023-04-15T02:59:07;2.47;;;1.67;;
76745;SDS011;65671;49.976;20.038;2023-04-15T03:01:32;3.20;;;1.50;;
76745;SDS011;65671;49.976;20.038;2023-04-15T03:03:58;2.25;;;1.48;;
76745;SDS011;65671;49.976;20.038;2023-04-15T03:06:23;2.75;;;1.50;;
76745;SDS011;65671;49.976;20.038;2023-04-15T03:08:49;3.25;;;1.40;;
76745;SDS011;65671;49.976;20.038;2023-04-15T03:11:15;2.60;;;1.50;;
76745;SDS011;65671;49.976;20.038;2023-04-15T03:13:41;1.67;;;1.23;;
76745;SDS011;65671;49.976;20.038;2023-04-15T03:16:08;2.65;;;1.50;;
76745;SDS011;65671;49.976;20.038;2023-04-15T03:18:34;2.15;;;1.42;;
76745;SDS011;65671;49.976;20.038;2023-04-15T03:20:59;1.88;;;1.45;;
76745;SDS011;65671;49.976;20.038;2023-04-15T03:23:25;4.30;;;1.40;;
76745;SDS011;65671;49.976;20.038;2023-04-15T03:25:51;2.80;;;1.30;;
76745;SDS011;65671;49.976;20.038;2023-04-15T03:28:18;1.83;;;1.35;;
76745;SDS011;65671;49.976;20.038;2023-04-15T03:30:44;3.72;;;2.03;;
76745;SDS011;65671;49.976;20.038;2023-04-15T03:33:10;2.65;;;1.40;;
76745;SDS011;65671;49.976;20.038;2023-04-15T03:35:36;4.72;;;1.40;;
76745;SDS011;65671;49.976;20.038;2023-04-15T03:38:01;3.80;;;1.42;;
76745;SDS011;65671;49.976;20.038;2023-04-15T03:40:27;3.08;;;1.40;;
76745;SDS011;65671;49.976;20.038;2023-04-15T03:42:52;2.33;;;1.58;;
76745;SDS011;65671;49.976;20.038;2023-04-15T03:45:18;2.22;;;1.60;;
76745;SDS011;65671;49.976;20.038;2023-04-15T03:47:43;2.28;;;1.48;;
76745;SDS011;65671;49.976;20.038;2023-04-15T03:50:09;1.90;;;1.23;;
76745;SDS011;65671;49.976;20.038;2023-04-15T03:52:35;1.60;;;1.30;;
76745;SDS011;65671;49.976;20.038;2023-04-15T03:55:01;2.05;;;1.45;;
76745;SDS011;65671;49.976;20.038;2023-04-15T03:57:26;2.28;;;1.58;;
76745;SDS011;65671;49.976;20.038;2023-04-15T03:59:52;2.97;;;1.48;;
76745;SDS011;65671;49.976;20.038;2023-04-15T04:02:18;2.25;;;1.60;;
76745;SDS011;65671;49.976;20.038;2023-04-15T04:04:44;2.10;;;1.70;;
76745;SDS011;65671;49.976;20.038;2023-04-15T04:07:13;2.70;;;1.60;;
76745;SDS011;65671;49.976;20.038;2023-04-15T04:09:40;3.88;;;1.60;;
76745;SDS011;65671;49.976;20.038;2023-04-15T04:12:06;1.90;;;1.40;;
76745;SDS011;65671;49.976;20.038;2023-04-15T04:14:31;2.85;;;1.42;;
76745;SDS011;65671;49.976;20.038;2023-04-15T04:16:57;2.30;;;1.65;;
76745;SDS011;65671;49.976;20.038;2023-04-15T04:19:23;3.10;;;1.70;;
76745;SDS011;65671;49.976;20.038;2023-04-15T04:21:48;2.40;;;1.70;;
76745;SDS011;65671;49.976;20.038;2023-04-15T04:24:14;3.53;;;1.75;;
76745;SDS011;65671;49.976;20.038;2023-04-15T04:26:40;2.60;;;1.88;;
76745;SDS011;65671;49.976;20.038;2023-04-15T04:29:05;3.85;;;1.75;;
76745;SDS011;65671;49.976;20.038;2023-04-15T04:31:31;3.00;;;1.92;;
76745;SDS011;65671;49.976;20.038;2023-04-15T04:33:57;3.75;;;2.00;;
76745;SDS011;65671;49.976;20.038;2023-04-15T04:36:22;3.33;;;1.90;;
76745;SDS011;65671;49.976;20.038;2023-04-15T04:38:48;3.90;;;2.03;;
76745;SDS011;65671;49.976;20.038;2023-04-15T04:41:13;3.50;;;1.95;;
76745;SDS011;65671;49.976;20.038;2023-04-15T04:43:39;3.47;;;2.10;;
76745;SDS011;65671;49.976;20.038;2023-04-15T04:46:05;4.13;;;2.65;;
76745;SDS011;65671;49.976;20.038;2023-04-15T04:48:31;3.53;;;2.13;;
76745;SDS011;65671;49.976;20.038;2023-04-15T04:50:56;5.13;;;3.08;;
76745;SDS011;65671;49.976;20.038;2023-04-15T04:53:22;6.05;;;3.72;;
76745;SDS011;65671;49.976;20.038;2023-04-15T04:55:47;7.22;;;4.32;;
76745;SDS011;65671;49.976;20.038;2023-04-15T04:58:13;7.05;;;3.83;;
76745;SDS011;65671;49.976;20.038;2023-04-15T05:00:39;5.60;;;3.60;;
76745;SDS011;65671;49.976;20.038;2023-04-15T05:03:05;4.93;;;3.40;;
76745;SDS011;65671;49.976;20.038;2023-04-15T05:05:30;5.20;;;2.90;;
76745;SDS011;65671;49.976;20.038;2023-04-15T05:07:56;4.85;;;3.05;;
76745;SDS011;65671;49.976;20.038;2023-04-15T05:10:21;4.10;;;3.00;;
76745;SDS011;65671;49.976;20.038;2023-04-15T05:12:47;5.57;;;3.28;;
76745;SDS011;65671;49.976;20.038;2023-04-15T05:15:13;3.72;;;2.67;;
76745;SDS011;65671;49.976;20.038;2023-04-15T05:17:42;2.63;;;2.08;;
76745;SDS011;65671;49.976;20.038;2023-04-15T05:20:07;3.25;;;2.03;;
76745;SDS011;65671;49.976;20.038;2023-04-15T05:22:33;3.03;;;2.10;;
76745;SDS011;65671;49.976;20.038;2023-04-15T05:24:59;3.28;;;2.45;;
76745;SDS011;65671;49.976;20.038;2023-04-15T05:27:25;3.38;;;2.28;;
76745;SDS011;65671;49.976;20.038;2023-04-15T05:29:50;4.15;;;2.35;;
76745;SDS011;65671;49.976;20.038;2023-04-15T05:32:16;4.25;;;2.58;;
76745;SDS011;65671;49.976;20.038;2023-04-15T05:34:41;7.57;;;2.85;;
76745;SDS011;65671;49.976;20.038;2023-04-15T05:37:07;4.57;;;2.83;;
76745;SDS011;65671;49.976;20.038;2023-04-15T05:39:32;4.22;;;2.38;;
76745;SDS011;65671;49.976;20.038;2023-04-15T05:41:58;4.05;;;2.53;;
76745;SDS011;65671;49.976;20.038;2023-04-15T05:44:24;4.07;;;2.30;;
76745;SDS011;65671;49.976;20.038;2023-04-15T05:46:50;5.28;;;2.50;;
76745;SDS011;65671;49.976;20.038;2023-04-15T05:49:16;5.70;;;1.95;;
76745;SDS011;65671;49.976;20.038;2023-04-15T05:51:42;3.42;;;2.25;;
76745;SDS011;65671;49.976;20.038;2023-04-15T05:54:07;2.50;;;1.77;;
76745;SDS011;65671;49.976;20.038;2023-04-15T05:56:33;3.40;;;2.00;;
76745;SDS011;65671;49.976;20.038;2023-04-15T05:58:59;3.08;;;2.10;;
76745;SDS011;65671;49.976;20.038;2023-04-15T06:01:24;2.67;;;1.90;;
76745;SDS011;65671;49.976;20.038;2023-04-15T06:03:50;3.33;;;1.83;;
76745;SDS011;65671;49.976;20.038;2023-04-15T06:06:15;2.00;;;1.55;;
76745;SDS011;65671;49.976;20.038;2023-04-15T06:08:41;2.58;;;1.75;;
76745;SDS011;65671;49.976;20.038;2023-04-15T06:11:07;2.60;;;1.98;;
76745;SDS011;65671;49.976;20.038;2023-04-15T06:13:32;1.88;;;1.42;;
76745;SDS011;65671;49.976;20.038;2023-04-15T06:15:58;3.17;;;1.80;;
76745;SDS011;65671;49.976;20.038;2023-04-15T06:18:24;2.47;;;1.63;;
76745;SDS011;65671;49.976;20.038;2023-04-15T06:20:49;3.65;;;1.88;;
76745;SDS011;65671;49.976;20.038;2023-04-15T06:23:16;2.72;;;2.00;;
76745;SDS011;65671;49.976;20.038;2023-04-15T06:25:41;3.75;;;2.10;;
76745;SDS011;65671;49.976;20.038;2023-04-15T06:28:07;4.32;;;2.38;;
76745;SDS011;65671;49.976;20.038;2023-04-15T06:30:33;3.25;;;2.00;;
76745;SDS011;65671;49.976;20.038;2023-04-15T06:33:00;3.65;;;2.03;;
76745;SDS011;65671;49.976;20.038;2023-04-15T06:35:27;3.28;;;2.10;;
76745;SDS011;65671;49.976;20.038;2023-04-15T06:37:53;3.00;;;1.83;;
76745;SDS011;65671;49.976;20.038;2023-04-15T06:40:18;3.72;;;1.90;;
76745;SDS011;65671;49.976;20.038;2023-04-15T06:42:44;2.75;;;1.80;;
76745;SDS011;65671;49.976;20.038;2023-04-15T06:45:10;2.92;;;1.80;;
76745;SDS011;65671;49.976;20.038;2023-04-15T06:47:36;4.30;;;1.90;;
76745;SDS011;65671;49.976;20.038;2023-04-15T06:50:01;2.63;;;1.85;;
76745;SDS011;65671;49.976;20.038;2023-04-15T06:52:28;5.80;;;3.35;;
76745;SDS011;65671;49.976;20.038;2023-04-15T06:54:53;3.65;;;1.83;;
76745;SDS011;65671;49.976;20.038;2023-04-15T06:57:19;3.10;;;2.50;;
76745;SDS011;65671;49.976;20.038;2023-04-15T06:59:44;4.15;;;2.63;;
76745;SDS011;65671;49.976;20.038;2023-04-15T07:02:11;2.58;;;1.88;;
76745;SDS011;65671;49.976;20.038;2023-04-15T07:04:38;3.38;;;2.17;;
76745;SDS011;65671;49.976;20.038;2023-04-15T07:07:04;3.90;;;2.10;;
76745;SDS011;65671;49.976;20.038;2023-04-15T07:09:30;6.47;;;2.30;;
76745;SDS011;65671;49.976;20.038;2023-04-15T07:11:56;3.80;;;2.15;;
76745;SDS011;65671;49.976;20.038;2023-04-15T07:14:22;3.95;;;2.92;;
76745;SDS011;65671;49.976;20.038;2023-04-15T07:16:47;3.22;;;2.13;;
76745;SDS011;65671;49.976;20.038;2023-04-15T07:19:13;3.20;;;2.20;;
76745;SDS011;65671;49.976;20.038;2023-04-15T07:21:38;5.68;;;2.50;;
76745;SDS011;65671;49.976;20.038;2023-04-15T07:24:04;3.47;;;2.22;;
76745;SDS011;65671;49.976;20.038;2023-04-15T07:26:29;3.20;;;2.30;;
76745;SDS011;65671;49.976;20.038;2023-04-15T07:28:55;3.45;;;2.13;;
76745;SDS011;65671;49.976;20.038;2023-04-15T07:31:20;4.57;;;2.25;;
76745;SDS011;65671;49.976;20.038;2023-04-15T07:33:46;4.63;;;2.10;;
76745;SDS011;65671;49.976;20.038;2023-04-15T07:36:12;2.97;;;2.00;;
76745;SDS011;65671;49.976;20.038;2023-04-15T07:38:38;3.47;;;2.40;;
76745;SDS011;65671;49.976;20.038;2023-04-15T07:41:04;3.20;;;2.22;;
76745;SDS011;65671;49.976;20.038;2023-04-15T07:43:30;3.63;;;2.30;;
76745;SDS011;65671;49.976;20.038;2023-04-15T07:45:55;3.97;;;2.42;;
76745;SDS011;65671;49.976;20.038;2023-04-15T07:48:21;7.35;;;2.30;;
76745;SDS011;65671;49.976;20.038;2023-04-15T07:50:47;2.92;;;1.98;;
76745;SDS011;65671;49.976;20.038;2023-04-15T07:53:12;3.33;;;1.90;;
76745;SDS011;65671;49.976;20.038;2023-04-15T07:55:38;3.15;;;2.00;;
76745;SDS011;65671;49.976;20.038;2023-04-15T07:58:04;5.38;;;2.25;;
76745;SDS011;65671;49.976;20.038;2023-04-15T08:00:30;3.30;;;2.17;;
76745;SDS011;65671;49.976;20.038;2023-04-15T08:02:56;4.20;;;2.38;;
76745;SDS011;65671;49.976;20.038;2023-04-15T08:05:23;3.83;;;2.30;;
76745;SDS011;65671;49.976;20.038;2023-04-15T08:07:50;4.20;;;2.30;;
76745;SDS011;65671;49.976;20.038;2023-04-15T08:10:16;5.65;;;2.90;;
76745;SDS011;65671;49.976;20.038;2023-04-15T08:12:41;4.50;;;2.58;;
76745;SDS011;65671;49.976;20.038;2023-04-15T08:15:07;7.40;;;3.30;;
76745;SDS011;65671;49.976;20.038;2023-04-15T08:17:33;5.97;;;2.97;;
76745;SDS011;65671;49.976;20.038;2023-04-15T08:19:59;7.60;;;2.88;;
76745;SDS011;65671;49.976;20.038;2023-04-15T08:22:25;5.93;;;2.92;;
76745;SDS011;65671;49.976;20.038;2023-04-15T08:24:51;5.53;;;2.70;;
76745;SDS011;65671;49.976;20.038;2023-04-15T08:27:17;5.65;;;3.22;;
76745;SDS011;65671;49.976;20.038;2023-04-15T08:29:43;5.32;;;3.80;;
76745;SDS011;65671;49.976;20.038;2023-04-15T08:32:09;5.63;;;3.63;;
76745;SDS011;65671;49.976;20.038;2023-04-15T08:34:35;7.10;;;3.70;;
76745;SDS011;65671;49.976;20.038;2023-04-15T08:37:01;6.80;;;3.80;;
76745;SDS011;65671;49.976;20.038;2023-04-15T08:39:26;6.35;;;3.47;;
76745;SDS011;65671;49.976;20.038;2023-04-15T08:41:57;8.65;;;2.90;;
76745;SDS011;65671;49.976;20.038;2023-04-15T08:44:28;7.20;;;3.05;;
76745;SDS011;65671;49.976;20.038;2023-04-15T08:46:56;4.40;;;2.75;;
76745;SDS011;65671;49.976;20.038;2023-04-15T08:49:25;5.05;;;2.78;;
76745;SDS011;65671;49.976;20.038;2023-04-15T08:51:52;4.68;;;2.97;;
76745;SDS011;65671;49.976;20.038;2023-04-15T08:54:20;4.03;;;2.40;;
76745;SDS011;65671;49.976;20.038;2023-04-15T08:56:46;4.80;;;3.08;;
76745;SDS011;65671;49.976;20.038;2023-04-15T08:59:13;5.10;;;2.90;;
76745;SDS011;65671;49.976;20.038;2023-04-15T09:01:40;4.15;;;2.50;;
76745;SDS011;65671;49.976;20.038;2023-04-15T09:04:06;4.22;;;2.47;;
76745;SDS011;65671;49.976;20.038;2023-04-15T09:06:33;5.15;;;2.30;;
76745;SDS011;65671;49.976;20.038;2023-04-15T09:08:59;4.25;;;2.40;;
76745;SDS011;65671;49.976;20.038;2023-04-15T09:11:25;4.15;;;2.65;;
76745;SDS011;65671;49.976;20.038;2023-04-15T09:13:51;3.38;;;2.13;;
76745;SDS011;65671;49.976;20.038;2023-04-15T09:16:17;2.60;;;2.00;;
76745;SDS011;65671;49.976;20.038;2023-04-15T09:18:42;3.45;;;1.88;;
76745;SDS011;65671;49.976;20.038;2023-04-15T09:21:09;3.85;;;2.28;;
76745;SDS011;65671;49.976;20.038;2023-04-15T09:23:37;3.85;;;2.03;;
76745;SDS011;65671;49.976;20.038;2023-04-15T09:26:04;2.92;;;2.20;;
76745;SDS011;65671;49.976;20.038;2023-04-15T09:28:30;3.40;;;2.15;;
76745;SDS011;65671;49.976;20.038;2023-04-15T09:30:59;3.00;;;1.88;;
76745;SDS011;65671;49.976;20.038;2023-04-15T09:33:27;2.95;;;1.92;;
76745;SDS011;65671;49.976;20.038;2023-04-15T09:35:58;3.33;;;1.83;;
76745;SDS011;65671;49.976;20.038;2023-04-15T09:38:25;3.92;;;2.35;;
76745;SDS011;65671;49.976;20.038;2023-04-15T09:40:51;3.28;;;1.98;;
76745;SDS011;65671;49.976;20.038;2023-04-15T09:43:17;4.05;;;1.80;;
76745;SDS011;65671;49.976;20.038;2023-04-15T09:45:49;2.88;;;2.00;;
76745;SDS011;65671;49.976;20.038;2023-04-15T09:48:23;2.85;;;2.10;;
76745;SDS011;65671;49.976;20.038;2023-04-15T09:50:58;3.33;;;1.90;;
76745;SDS011;65671;49.976;20.038;2023-04-15T09:53:25;2.92;;;1.85;;
76745;SDS011;65671;49.976;20.038;2023-04-15T09:55:53;3.45;;;1.73;;
76745;SDS011;65671;49.976;20.038;2023-04-15T09:58:24;3.30;;;2.20;;
76745;SDS011;65671;49.976;20.038;2023-04-15T10:00:55;2.90;;;1.98;;
76745;SDS011;65671;49.976;20.038;2023-04-15T10:03:23;3.83;;;2.15;;
76745;SDS011;65671;49.976;20.038;2023-04-15T10:05:54;3.70;;;1.80;;
76745;SDS011;65671;49.976;20.038;2023-04-15T10:08:22;3.53;;;2.05;;
76745;SDS011;65671;49.976;20.038;2023-04-15T10:10:52;2.65;;;1.80;;
76745;SDS011;65671;49.976;20.038;2023-04-15T10:13:20;2.60;;;2.08;;
76745;SDS011;65671;49.976;20.038;2023-04-15T10:15:49;2.65;;;1.73;;
76745;SDS011;65671;49.976;20.038;2023-04-15T10:18:18;2.30;;;1.65;;
76745;SDS011;65671;49.976;20.038;2023-04-15T10:20:46;2.97;;;1.80;;
76745;SDS011;65671;49.976;20.038;2023-04-15T10:23:12;3.63;;;1.90;;
76745;SDS011;65671;49.976;20.038;2023-04-15T10:25:39;4.75;;;1.90;;
76745;SDS011;65671;49.976;20.038;2023-04-15T10:28:06;3.08;;;2.13;;
76745;SDS011;65671;49.976;20.038;2023-04-15T10:30:33;2.30;;;1.70;;
76745;SDS011;65671;49.976;20.038;2023-04-15T10:33:00;2.85;;;1.90;;
76745;SDS011;65671;49.976;20.038;2023-04-15T10:35:28;2.70;;;1.70;;
76745;SDS011;65671;49.976;20.038;2023-04-15T10:37:55;2.10;;;1.70;;
76745;SDS011;65671;49.976;20.038;2023-04-15T10:40:28;3.30;;;1.85;;
76745;SDS011;65671;49.976;20.038;2023-04-15T10:43:01;2.92;;;1.45;;
76745;SDS011;65671;49.976;20.038;2023-04-15T10:45:32;1.90;;;1.50;;
76745;SDS011;65671;49.976;20.038;2023-04-15T10:48:01;2.55;;;1.42;;
76745;SDS011;65671;49.976;20.038;2023-04-15T10:50:32;2.53;;;2.00;;
76745;SDS011;65671;49.976;20.038;2023-04-15T10:52:58;4.57;;;1.90;;
76745;SDS011;65671;49.976;20.038;2023-04-15T10:55:27;3.15;;;1.83;;
76745;SDS011;65671;49.976;20.038;2023-04-15T10:57:57;3.17;;;2.00;;
76745;SDS011;65671;49.976;20.038;2023-04-15T11:00:28;4.13;;;2.10;;
76745;SDS011;65671;49.976;20.038;2023-04-15T11:02:55;3.25;;;2.08;;
76745;SDS011;65671;49.976;20.038;2023-04-15T11:05:47;3.28;;;1.85;;
76745;SDS011;65671;49.976;20.038;2023-04-15T11:08:18;2.30;;;1.70;;
76745;SDS011;65671;49.976;20.038;2023-04-15T11:15:39;2.85;;;1.92;;
76745;SDS011;65671;49.976;20.038;2023-04-15T11:20:35;3.22;;;2.10;;
76745;SDS011;65671;49.976;20.038;2023-04-15T11:23:02;4.00;;;1.90;;
76745;SDS011;65671;49.976;20.038;2023-04-15T11:25:29;4.00;;;1.80;;
76745;SDS011;65671;49.976;20.038;2023-04-15T11:27:59;3.05;;;1.85;;
76745;SDS011;65671;49.976;20.038;2023-04-15T11:30:28;3.25;;;2.03;;
76745;SDS011;65671;49.976;20.038;2023-04-15T11:33:00;2.72;;;1.75;;
76745;SDS011;65671;49.976;20.038;2023-04-15T11:35:28;2.35;;;1.77;;
76745;SDS011;65671;49.976;20.038;2023-04-15T11:37:54;3.05;;;1.85;;
76745;SDS011;65671;49.976;20.038;2023-04-15T11:40:24;3.10;;;2.10;;
76745;SDS011;65671;49.976;20.038;2023-04-15T11:43:04;2.78;;;2.13;;
76745;SDS011;65671;49.976;20.038;2023-04-15T11:45:34;3.70;;;1.92;;
76745;SDS011;65671;49.976;20.038;2023-04-15T11:48:08;5.22;;;2.22;;
76745;SDS011;65671;49.976;20.038;2023-04-15T11:50:35;3.17;;;2.00;;
76745;SDS011;65671;49.976;20.038;2023-04-15T11:53:04;3.17;;;2.00;;
76745;SDS011;65671;49.976;20.038;2023-04-15T11:55:39;3.15;;;2.30;;
76745;SDS011;65671;49.976;20.038;2023-04-15T11:58:14;3.70;;;2.30;;
76745;SDS011;65671;49.976;20.038;2023-04-15T12:00:44;3.50;;;2.53;;
76745;SDS011;65671;49.976;20.038;2023-04-15T12:06:52;4.53;;;2.13;;
76745;SDS011;65671;49.976;20.038;2023-04-15T12:11:20;5.63;;;3.92;;
76745;SDS011;65671;49.976;20.038;2023-04-15T12:13:58;4.18;;;2.63;;
76745;SDS011;65671;49.976;20.038;2023-04-15T12:16:24;5.18;;;2.55;;
76745;SDS011;65671;49.976;20.038;2023-04-15T12:18:50;4.20;;;2.50;;
76745;SDS011;65671;49.976;20.038;2023-04-15T12:21:20;5.90;;;2.50;;
76745;SDS011;65671;49.976;20.038;2023-04-15T12:23:50;3.92;;;2.53;;
76745;SDS011;65671;49.976;20.038;2023-04-15T12:26:24;3.70;;;2.67;;
76745;SDS011;65671;49.976;20.038;2023-04-15T12:28:54;2.90;;;1.77;;
76745;SDS011;65671;49.976;20.038;2023-04-15T12:31:21;4.05;;;1.92;;
76745;SDS011;65671;49.976;20.038;2023-04-15T12:33:47;2.58;;;1.80;;
76745;SDS011;65671;49.976;20.038;2023-04-15T12:36:14;2.63;;;2.03;;
76745;SDS011;65671;49.976;20.038;2023-04-15T12:38:40;2.72;;;2.00;;
76745;SDS011;65671;49.976;20.038;2023-04-15T12:41:06;4.32;;;2.00;;
76745;SDS011;65671;49.976;20.038;2023-04-15T12:43:32;3.78;;;2.60;;
76745;SDS011;65671;49.976;20.038;2023-04-15T12:45:57;4.25;;;2.30;;
76745;SDS011;65671;49.976;20.038;2023-04-15T12:48:23;7.13;;;3.97;;
76745;SDS011;65671;49.976;20.038;2023-04-15T12:50:48;4.55;;;4.05;;
76745;SDS011;65671;49.976;20.038;2023-04-15T12:53:14;8.85;;;5.45;;
76745;SDS011;65671;49.976;20.038;2023-04-15T12:55:39;3.65;;;2.28;;
76745;SDS011;65671;49.976;20.038;2023-04-15T12:58:05;4.18;;;2.58;;
76745;SDS011;65671;49.976;20.038;2023-04-15T13:00:33;4.03;;;2.92;;
76745;SDS011;65671;49.976;20.038;2023-04-15T13:02:59;4.60;;;2.40;;
76745;SDS011;65671;49.976;20.038;2023-04-15T13:05:24;4.57;;;2.40;;
76745;SDS011;65671;49.976;20.038;2023-04-15T13:07:50;3.13;;;2.13;;
76745;SDS011;65671;49.976;20.038;2023-04-15T13:10:15;4.57;;;2.38;;
76745;SDS011;65671;49.976;20.038;2023-04-15T13:12:41;4.78;;;2.53;;
76745;SDS011;65671;49.976;20.038;2023-04-15T13:15:07;3.50;;;2.40;;
76745;SDS011;65671;49.976;20.038;2023-04-15T13:17:35;3.40;;;2.05;;
76745;SDS011;65671;49.976;20.038;2023-04-15T13:20:01;4.22;;;2.10;;
76745;SDS011;65671;49.976;20.038;2023-04-15T13:22:26;3.67;;;2.42;;
76745;SDS011;65671;49.976;20.038;2023-04-15T13:24:52;4.35;;;2.50;;
76745;SDS011;65671;49.976;20.038;2023-04-15T13:27:17;3.13;;;2.33;;
76745;SDS011;65671;49.976;20.038;2023-04-15T13:29:43;3.45;;;2.35;;
76745;SDS011;65671;49.976;20.038;2023-04-15T13:32:08;2.80;;;2.10;;
76745;SDS011;65671;49.976;20.038;2023-04-15T13:34:34;2.90;;;2.03;;
76745;SDS011;65671;49.976;20.038;2023-04-15T13:37:06;6.60;;;3.83;;
76745;SDS011;65671;49.976;20.038;2023-04-15T13:39:33;3.55;;;2.20;;
76745;SDS011;65671;49.976;20.038;2023-04-15T13:41:58;3.90;;;2.25;;
76745;SDS011;65671;49.976;20.038;2023-04-15T13:44:24;3.45;;;2.00;;
76745;SDS011;65671;49.976;20.038;2023-04-15T13:46:49;4.63;;;2.38;;
76745;SDS011;65671;49.976;20.038;2023-04-15T13:49:16;2.60;;;2.17;;
76745;SDS011;65671;49.976;20.038;2023-04-15T13:51:42;3.13;;;2.22;;
76745;SDS011;65671;49.976;20.038;2023-04-15T13:54:07;3.63;;;2.35;;
76745;SDS011;65671;49.976;20.038;2023-04-15T13:56:33;3.40;;;2.67;;
76745;SDS011;65671;49.976;20.038;2023-04-15T13:58:59;4.10;;;2.40;;
76745;SDS011;65671;49.976;20.038;2023-04-15T14:01:26;3.78;;;2.40;;
76745;SDS011;65671;49.976;20.038;2023-04-15T14:03:52;3.63;;;2.08;;
76745;SDS011;65671;49.976;20.038;2023-04-15T14:06:18;3.05;;;2.10;;
76745;SDS011;65671;49.976;20.038;2023-04-15T14:08:43;4.70;;;2.40;;
76745;SDS011;65671;49.976;20.038;2023-04-15T14:11:10;4.07;;;2.65;;
76745;SDS011;65671;49.976;20.038;2023-04-15T14:13:36;3.95;;;2.53;;
76745;SDS011;65671;49.976;20.038;2023-04-15T14:16:01;3.50;;;2.40;;
76745;SDS011;65671;49.976;20.038;2023-04-15T14:18:27;3.83;;;2.20;;
76745;SDS011;65671;49.976;20.038;2023-04-15T14:20:54;3.83;;;2.25;;
76745;SDS011;65671;49.976;20.038;2023-04-15T14:23:21;3.45;;;2.45;;
76745;SDS011;65671;49.976;20.038;2023-04-15T14:25:49;4.05;;;2.58;;
76745;SDS011;65671;49.976;20.038;2023-04-15T14:28:15;3.70;;;2.90;;
76745;SDS011;65671;49.976;20.038;2023-04-15T14:30:41;4.72;;;3.42;;
76745;SDS011;65671;49.976;20.038;2023-04-15T14:33:07;3.95;;;3.03;;
76745;SDS011;65671;49.976;20.038;2023-04-15T14:35:33;4.65;;;3.15;;
76745;SDS011;65671;49.976;20.038;2023-04-15T14:37:58;4.75;;;3.22;;
76745;SDS011;65671;49.976;20.038;2023-04-15T14:40:24;4.35;;;2.92;;
76745;SDS011;65671;49.976;20.038;2023-04-15T14:42:50;4.20;;;2.63;;